Samaria, Indiana
Current Conditions -  °F | °C
As of 3:15 PM on Thursday 30 Oct 2014 (Local Time) from K1II Reporting Station
Clear Clear  
Wind Chill: 54°   Ceiling: Unl
Heat Index: 54°   Visibility: 10mi
Dew Point: 34°   Wind: 3mph
Humidity: 47%   Direction: 120°ESE
Pressure: 30.09"   Gusts: NA
Location:  39.3709°N, 86.1938°W
Report Text: K1II 301915Z AUTO 12003KT 10SM CLR 12/01 A3009 RMK AO2
Loading
Personal Weather Stations






























Interactive Weather Map
Tropical Storm Tracking
New forecast layout! Learn more

10-Day Weather Forecast

Advertisements
Track Severe Weather on mobile